International Virtual Aviation Organisation

Russian Federation and Kazakhstan MCD

 
UAKD 281037Z 28011G16MPS 9000 BLSN SCT013CB M05/M08 Q1030 R22/450037 NOSIG RMK QFE739/0985
QNH:(hPa/inHg/mmHg)1030 / 30.42 / 773
QFE:(hPa/inHg/mmHg)984 / 29.05 / 738
Temperature-5
Dew Point-8
Visibility9000
WeatherBlowing Snow
Cloud CoverSCT (1300);
Transition Height10000 m./34100 ft.
Transition LevelFL350
SQUAWK